Time;durP1;ratioP1;P1;durP2;ratioP2;P2;SDS_P1;SDS_P2;PMS_P1;PMS_P2;Temp;Humidity;BMP_temperature;BMP_pressure;BME280_temperature;BME280_humidity;BME280_pressure;Samples;Min_cycle;Max_cycle;Signal;HPM_P1;HPM_P2
2022/03/07 00:02:20;;;;;;;14.80;10.35;;;;;;;0.09;100.00;101774.69;6104813;29;20123;-88
2022/03/07 00:05:22;;;;;;;12.25;8.77;;;;;;;0.08;100.00;101773.03;6110950;29;20512;-88
2022/03/07 00:08:25;;;;;;;13.23;8.77;;;;;;;0.09;100.00;101777.25;6092334;29;20048;-88
2022/03/07 00:11:37;;;;;;;12.50;8.55;;;;;;;0.11;100.00;101774.69;6107506;29;20447;-88
2022/03/07 00:14:39;;;;;;;10.85;7.82;;;;;;;0.12;100.00;101782.28;6113745;29;20556;-88
2022/03/07 00:17:41;;;;;;;12.20;8.50;;;;;;;0.14;100.00;101778.03;6101822;29;20531;-88
2022/03/07 00:20:43;;;;;;;22.45;10.77;;;;;;;0.15;100.00;101789.91;6114631;29;20044;-88
2022/03/07 00:23:45;;;;;;;24.80;11.68;;;;;;;0.16;100.00;101781.38;6112249;29;20036;-88
2022/03/07 00:26:47;;;;;;;15.40;9.48;;;;;;;0.17;100.00;101783.09;6104829;29;20048;-88
2022/03/07 00:29:49;;;;;;;13.13;8.18;;;;;;;0.30;100.00;101780.31;6111698;29;20051;-88
2022/03/07 00:32:51;;;;;;;14.57;9.32;;;;;;;0.26;100.00;101782.09;6082278;29;20705;-89
2022/03/07 00:35:53;;;;;;;16.42;9.80;;;;;;;0.18;100.00;101781.38;6099635;29;20098;-88
2022/03/07 00:38:55;;;;;;;18.35;9.95;;;;;;;0.19;100.00;101775.41;6109239;29;20059;-88
2022/03/07 00:41:58;;;;;;;12.25;8.50;;;;;;;0.14;100.00;101782.28;6096844;29;20044;-88
2022/03/07 00:44:59;;;;;;;15.63;8.32;;;;;;;0.12;100.00;101777.19;6105270;29;20059;-88
2022/03/07 00:48:03;;;;;;;13.05;8.68;;;;;;;0.15;100.00;101778.84;6095687;29;20044;-88
2022/03/07 00:51:05;;;;;;;11.73;7.38;;;;;;;0.16;100.00;101771.19;6112148;29;20052;-88
2022/03/07 00:54:07;;;;;;;14.55;8.85;;;;;;;0.17;100.00;101778.00;6097656;29;20510;-88
2022/03/07 00:57:10;;;;;;;10.80;8.50;;;;;;;0.15;100.00;101773.75;6100382;29;20078;-88
2022/03/07 01:00:12;;;;;;;11.30;7.95;;;;;;;0.20;100.00;101782.19;6105165;29;20068;-88
2022/03/07 01:03:17;;;;;;;12.40;8.40;;;;;;;0.16;100.00;101783.94;6101810;29;20087;-88
2022/03/07 01:06:19;;;;;;;13.85;8.82;;;;;;;0.17;100.00;101782.22;6095440;29;20493;-88
2022/03/07 01:09:21;;;;;;;11.85;8.55;;;;;;;0.17;100.00;101785.63;6113731;29;20067;-88
2022/03/07 01:12:23;;;;;;;11.98;9.13;;;;;;;0.18;100.00;101789.00;6089417;29;20124;-88
2022/03/07 01:15:26;;;;;;;12.80;9.10;;;;;;;0.16;100.00;101785.63;6110802;28;20048;-88
2022/03/07 01:18:28;;;;;;;14.50;9.13;;;;;;;0.15;100.00;101783.94;6111827;29;20044;-88
2022/03/07 01:21:30;;;;;;;19.45;10.20;;;;;;;0.18;100.00;101789.00;6098771;29;20036;-88
2022/03/07 01:24:32;;;;;;;12.43;8.93;;;;;;;0.16;100.00;101794.13;6103719;29;20488;-88
2022/03/07 01:27:34;;;;;;;14.45;9.75;;;;;;;0.19;100.00;101795.78;6110783;29;20039;-88
2022/03/07 01:30:36;;;;;;;12.90;8.90;;;;;;;0.20;100.00;101789.84;6091293;29;20533;-88
2022/03/07 01:33:38;;;;;;;16.25;10.27;;;;;;;0.18;100.00;101787.31;6096312;29;20520;-88
2022/03/07 01:36:40;;;;;;;14.88;10.30;;;;;;;0.21;100.00;101779.59;6108691;29;21008;-88
2022/03/07 01:39:42;;;;;;;17.33;10.07;;;;;;;0.23;100.00;101782.13;6093799;29;20145;-88
2022/03/07 01:42:45;;;;;;;14.90;9.02;;;;;;;0.26;100.00;101771.91;6099581;29;20043;-88
2022/03/07 01:45:47;;;;;;;14.93;9.43;;;;;;;0.19;100.00;101776.25;6092746;29;20505;-88
2022/03/07 01:48:49;;;;;;;14.77;10.25;;;;;;;0.17;100.00;101766.94;6109218;29;20044;-88
2022/03/07 01:51:52;;;;;;;13.80;9.75;;;;;;;0.17;100.00;101770.34;6110576;29;20397;-88
2022/03/07 01:54:55;;;;;;;10.68;8.55;;;;;;;0.16;100.00;101771.19;6108694;29;20044;-88
2022/03/07 01:57:57;;;;;;;14.52;9.52;;;;;;;0.16;100.00;101776.28;6109403;29;20063;-88
2022/03/07 02:00:59;;;;;;;15.77;9.18;;;;;;;0.17;100.00;101772.91;6106084;29;20043;-88
2022/03/07 02:04:02;;;;;;;16.75;9.10;;;;;;;0.20;100.00;101782.19;6097644;29;21847;-88
2022/03/07 02:07:06;;;;;;;15.90;10.25;;;;;;;0.17;100.00;101770.34;6107016;29;20493;-88
2022/03/07 02:10:11;;;;;;;13.25;9.55;;;;;;;0.13;100.00;101771.25;6106778;29;20138;-88
2022/03/07 02:13:18;;;;;;;19.92;9.88;;;;;;;0.21;100.00;101769.41;6095881;29;20040;-88
2022/03/07 02:16:31;;;;;;;14.18;10.00;;;;;;;0.15;100.00;101761.91;6108207;29;20078;-88
2022/03/07 02:19:36;;;;;;;11.85;9.20;;;;;;;0.17;100.00;101770.34;6120701;29;20047;-88
2022/03/07 02:22:38;;;;;;;16.08;9.35;;;;;;;0.11;100.00;101765.34;6116232;29;20056;-88
2022/03/07 02:25:40;;;;;;;11.80;8.82;;;;;;;0.09;100.00;101768.78;6111251;29;20043;-88
2022/03/07 02:28:44;;;;;;;12.48;9.15;;;;;;;0.13;100.00;101765.34;6099691;29;20133;-88
2022/03/07 02:31:47;;;;;;;11.48;7.97;;;;;;;0.13;100.00;101760.25;6112562;29;20043;-89
2022/03/07 02:34:53;;;;;;;13.75;8.90;;;;;;;0.17;100.00;101755.06;6103826;29;20048;-88
2022/03/07 02:37:54;;;;;;;12.02;8.40;;;;;;;0.30;100.00;101757.41;6107906;29;20055;-88
2022/03/07 02:40:57;;;;;;;14.43;9.73;;;;;;;0.31;100.00;101756.56;6097326;29;20040;-89
2022/03/07 02:44:01;;;;;;;15.15;9.13;;;;;;;0.18;100.00;101755.91;6090594;29;20408;-88
2022/03/07 02:47:03;;;;;;;14.68;9.52;;;;;;;0.09;100.00;101751.78;6098623;29;20180;-88
2022/03/07 02:50:05;;;;;;;14.57;8.73;;;;;;;0.11;100.00;101750.06;6114185;29;20043;-88
2022/03/07 02:53:07;;;;;;;15.25;9.38;;;;;;;0.15;100.00;101754.25;6110372;29;20043;-89
2022/03/07 02:56:09;;;;;;;12.82;9.07;;;;;;;0.13;100.00;101755.16;6100368;29;20083;-88
2022/03/07 02:59:11;;;;;;;14.55;9.90;;;;;;;0.09;100.00;101758.59;6110838;29;20048;-88
2022/03/07 03:02:13;;;;;;;13.52;9.30;;;;;;;0.16;100.00;101758.47;6108594;29;20048;-88
2022/03/07 03:05:16;;;;;;;13.07;8.85;;;;;;;0.07;100.00;101750.97;6109041;29;20228;-88
2022/03/07 03:08:17;;;;;;;14.85;9.15;;;;;;;0.02;100.00;101740.03;6117751;29;20054;-88
2022/03/07 03:11:19;;;;;;;13.80;9.50;;;;;;;-0.02;100.00;101740.94;6111424;29;20472;-88
2022/03/07 03:14:25;;;;;;;13.32;8.98;;;;;;;-0.03;100.00;101742.63;6105640;29;20044;-88
2022/03/07 03:17:27;;;;;;;16.60;9.60;;;;;;;0.06;100.00;101741.66;6111235;29;20059;-88
2022/03/07 03:20:28;;;;;;;15.18;8.40;;;;;;;0.13;100.00;101750.88;6103535;29;20695;-88
2022/03/07 03:23:30;;;;;;;11.38;8.48;;;;;;;0.19;100.00;101748.22;6104697;29;20055;-88
2022/03/07 03:26:33;;;;;;;13.25;9.30;;;;;;;0.13;100.00;101742.41;6109423;29;20706;-88
2022/03/07 03:29:34;;;;;;;14.13;9.57;;;;;;;0.16;100.00;101745.75;6101199;29;20056;-88
2022/03/07 03:32:37;;;;;;;12.52;9.20;;;;;;;0.11;100.00;101750.06;6106355;29;21180;-88
2022/03/07 03:35:39;;;;;;;13.45;9.57;;;;;;;0.02;100.00;101750.19;6114699;29;20043;-88
2022/03/07 03:38:41;;;;;;;14.77;9.40;;;;;;;-0.06;100.00;101750.31;6110967;29;20460;-88
2022/03/07 03:41:43;;;;;;;12.77;9.48;;;;;;;-0.11;100.00;101749.56;6116108;29;20132;-88
2022/03/07 03:44:45;;;;;;;15.27;9.63;;;;;;;-0.06;100.00;101757.13;6105074;29;20731;-88
2022/03/07 03:47:47;;;;;;;14.93;9.23;;;;;;;-0.04;100.00;101752.84;6118086;29;20047;-88
2022/03/07 03:50:49;;;;;;;14.18;9.50;;;;;;;-0.16;100.00;101750.50;6116121;29;20521;-88
2022/03/07 03:53:51;;;;;;;17.27;10.20;;;;;;;-0.24;100.00;101748.91;6106507;29;20044;-88
2022/03/07 03:57:00;;;;;;;14.02;8.80;;;;;;;-0.39;100.00;101743.19;6104775;29;20651;-88
2022/03/07 04:00:03;;;;;;;14.32;9.45;;;;;;;-0.69;100.00;101743.56;6114398;29;20074;-88
2022/03/07 04:03:12;;;;;;;14.43;10.48;;;;;;;-0.95;100.00;101738.78;6117565;29;20063;-88
2022/03/07 04:06:14;;;;;;;17.00;10.70;;;;;;;-1.13;100.00;101739.00;6099728;29;20052;-88
2022/03/07 04:09:21;;;;;;;16.88;10.65;;;;;;;-1.25;100.00;101729.81;6110931;29;20052;-88
2022/03/07 04:12:23;;;;;;;16.55;10.93;;;;;;;-1.35;100.00;101735.84;6100155;29;20055;-88
2022/03/07 04:15:26;;;;;;;16.52;9.63;;;;;;;-1.47;100.00;101730.88;6098134;29;20056;-88
2022/03/07 04:18:28;;;;;;;15.38;10.20;;;;;;;-1.53;100.00;101745.31;6106824;29;20673;-88
2022/03/07 04:21:30;;;;;;;16.65;10.27;;;;;;;-1.60;100.00;101750.47;6115922;29;20048;-88
2022/03/07 04:24:34;;;;;;;15.23;9.57;;;;;;;-1.63;100.00;101747.97;6112725;29;20057;-88
2022/03/07 04:27:36;;;;;;;16.75;9.85;;;;;;;-1.72;100.00;101753.94;6116652;29;20036;-88
2022/03/07 04:30:38;;;;;;;14.57;10.02;;;;;;;-1.83;100.00;101740.53;6122486;29;20486;-88
2022/03/07 04:33:40;;;;;;;15.90;10.32;;;;;;;-1.87;100.00;101742.22;6107921;29;20032;-88
2022/03/07 04:36:42;;;;;;;15.27;9.98;;;;;;;-1.97;100.00;101743.16;6101758;29;20453;-88
2022/03/07 04:39:44;;;;;;;17.15;9.80;;;;;;;-2.01;100.00;101737.28;6106085;29;20051;-88
2022/03/07 04:42:47;;;;;;;15.70;9.88;;;;;;;-2.01;100.00;101733.91;6115814;29;20048;-88
2022/03/07 04:45:52;;;;;;;13.70;9.50;;;;;;;-2.01;100.00;101737.28;6103939;29;20036;-88
2022/03/07 04:48:53;;;;;;;15.80;9.32;;;;;;;-1.99;100.00;101729.63;6103175;29;20120;-88
2022/03/07 04:51:55;;;;;;;11.88;8.88;;;;;;;-1.95;100.00;101739.75;6098451;29;20467;-88
2022/03/07 04:54:57;;;;;;;17.65;8.73;;;;;;;-1.94;100.00;101735.50;6112376;29;20046;-88
2022/03/07 04:57:59;;;;;;;16.85;10.40;;;;;;;-2.01;100.00;101734.72;6102268;29;20040;-88
2022/03/07 05:01:02;;;;;;;13.05;8.50;;;;;;;-2.03;100.00;101749.13;6111214;29;20040;-88
2022/03/07 05:04:04;;;;;;;12.70;8.60;;;;;;;-1.97;100.00;101745.69;6086791;29;20201;-88
2022/03/07 05:07:06;;;;;;;15.00;8.77;;;;;;;-1.98;100.00;101751.63;6101698;29;20284;-88
2022/03/07 05:10:08;;;;;;;13.27;8.82;;;;;;;-1.95;100.00;101749.06;6118448;29;20047;-88
2022/03/07 05:13:10;;;;;;;15.95;9.43;;;;;;;-1.91;100.00;101760.88;6105640;29;20051;-88
2022/03/07 05:16:12;;;;;;;16.80;10.27;;;;;;;-2.01;100.00;101759.25;6105524;29;20044;-88
2022/03/07 05:19:14;;;;;;;16.98;9.48;;;;;;;-2.00;100.00;101761.78;6110382;29;20051;-88
2022/03/07 05:22:17;;;;;;;16.27;10.05;;;;;;;-1.97;100.00;101776.13;6099965;29;20382;-88
2022/03/07 05:25:20;;;;;;;15.15;9.65;;;;;;;-1.96;100.00;101763.44;6109166;29;20048;-88
2022/03/07 05:28:22;;;;;;;14.57;10.60;;;;;;;-2.03;100.00;101773.66;6116001;29;20453;-88
2022/03/07 05:31:24;;;;;;;17.23;9.95;;;;;;;-1.83;100.00;101773.50;6103223;29;20048;-89
2022/03/07 05:34:26;;;;;;;15.43;10.07;;;;;;;-1.90;100.00;101772.69;6101367;29;20412;-89
2022/03/07 05:37:28;;;;;;;16.00;9.18;;;;;;;-1.97;100.00;101766.81;6114672;29;20055;-88
2022/03/07 05:40:29;;;;;;;15.27;9.07;;;;;;;-1.71;100.00;101772.53;6107011;29;20063;-88
2022/03/07 05:43:31;;;;;;;12.70;8.10;;;;;;;-1.48;100.00;101780.00;6097914;29;20051;-88
2022/03/07 05:46:33;;;;;;;14.27;8.60;;;;;;;-1.43;100.00;101779.09;6112830;29;20243;-88
2022/03/07 05:49:35;;;;;;;12.98;8.27;;;;;;;-1.54;100.00;101778.31;6114342;29;20044;-88
2022/03/07 05:52:37;;;;;;;13.80;8.50;;;;;;;-1.69;100.00;101776.78;6117536;29;20098;-88
2022/03/07 05:55:41;;;;;;;13.63;8.35;;;;;;;-1.75;100.00;101776.81;6114901;29;20050;-88
2022/03/07 05:58:43;;;;;;;16.35;8.15;;;;;;;-1.69;100.00;101784.41;6105569;29;20058;-88
2022/03/07 06:01:46;;;;;;;12.88;8.68;;;;;;;-1.79;100.00;101787.84;6120574;29;20048;-88
2022/03/07 06:04:48;;;;;;;16.40;9.18;;;;;;;-1.56;100.00;101780.91;6119977;29;20036;-88
2022/03/07 06:07:50;;;;;;;13.45;8.88;;;;;;;-1.50;100.00;101781.69;6118576;29;20118;-88
2022/03/07 06:10:51;;;;;;;17.23;10.23;;;;;;;-1.69;100.00;101786.06;6111861;29;20044;-88
2022/03/07 06:13:54;;;;;;;15.75;9.77;;;;;;;-1.63;100.00;101786.03;6109110;29;20064;-88
2022/03/07 06:16:55;;;;;;;18.50;10.57;;;;;;;-1.65;100.00;101788.59;6126826;29;20130;-88
2022/03/07 06:19:57;;;;;;;15.70;9.70;;;;;;;-1.43;100.00;101793.50;6107087;29;20063;-88
2022/03/07 06:23:00;;;;;;;16.85;10.10;;;;;;;-1.46;100.00;101793.53;6108297;29;20497;-88
2022/03/07 06:26:05;;;;;;;14.52;10.43;;;;;;;-1.47;100.00;101796.91;6112928;29;20143;-88
2022/03/07 06:29:07;;;;;;;16.08;9.85;;;;;;;-1.38;100.00;101796.81;6109600;29;20044;-88
2022/03/07 06:32:09;;;;;;;15.30;10.00;;;;;;;-1.43;100.00;101799.41;6110897;29;20044;-88
2022/03/07 06:35:12;;;;;;;13.80;9.50;;;;;;;-1.32;100.00;101786.59;6107774;29;20449;-88
2022/03/07 06:38:14;;;;;;;14.50;9.60;;;;;;;-1.36;100.00;101783.25;6099793;29;20048;-88
2022/03/07 06:41:17;;;;;;;16.75;10.25;;;;;;;-1.46;100.00;101779.13;6100188;29;20604;-88
2022/03/07 06:44:18;;;;;;;15.13;9.77;;;;;;;-1.67;100.00;101777.59;6104288;29;20080;-88
2022/03/07 06:47:21;;;;;;;16.05;9.77;;;;;;;-1.69;100.00;101781.00;6105414;29;20047;-88
2022/03/07 06:50:23;;;;;;;15.75;10.00;;;;;;;-1.78;100.00;101787.84;6102550;29;20044;-88
2022/03/07 06:53:25;;;;;;;17.73;10.27;;;;;;;-1.77;100.00;101789.50;6103928;29;20051;-88
2022/03/07 06:56:27;;;;;;;15.25;9.27;;;;;;;-1.66;100.00;101803.84;6104573;29;20220;-89
2022/03/07 06:59:29;;;;;;;13.55;8.95;;;;;;;-1.52;100.00;101810.50;6097388;29;20052;-88
2022/03/07 07:02:32;;;;;;;18.02;9.90;;;;;;;-1.39;100.00;101807.81;6103609;29;20711;-88
2022/03/07 07:05:34;;;;;;;18.05;9.95;;;;;;;-1.36;100.00;101810.38;6105172;29;20071;-88
2022/03/07 07:08:36;;;;;;;15.82;9.38;;;;;;;-1.40;100.00;101813.78;6104722;29;20099;-88
2022/03/07 07:11:38;;;;;;;17.05;10.25;;;;;;;-1.36;100.00;101806.13;6086059;29;20048;-88
2022/03/07 07:14:42;;;;;;;15.32;9.65;;;;;;;-1.38;100.00;101809.53;6105442;29;20407;-88
2022/03/07 07:17:45;;;;;;;17.85;10.55;;;;;;;-1.35;100.00;101817.94;6111327;29;20044;-88
2022/03/07 07:20:50;;;;;;;17.33;9.45;;;;;;;-1.34;100.00;101822.19;6101546;29;20511;-89
2022/03/07 07:23:52;;;;;;;17.88;11.15;;;;;;;-1.20;100.00;101821.22;6095718;29;20137;-88
2022/03/07 07:26:54;;;;;;;18.65;10.50;;;;;;;-1.17;100.00;101824.59;6111049;29;20059;-88
2022/03/07 07:29:56;;;;;;;15.25;10.23;;;;;;;-1.16;100.00;101820.34;6116506;29;20040;-88
2022/03/07 07:32:58;;;;;;;15.15;9.88;;;;;;;-1.04;100.00;101827.84;6111342;29;20040;-88
2022/03/07 07:36:00;;;;;;;19.05;10.48;;;;;;;-0.96;100.00;101837.94;6109330;29;20043;-88
2022/03/07 07:39:02;;;;;;;16.27;10.75;;;;;;;-0.87;100.00;101831.06;6116250;29;20055;-88
2022/03/07 07:42:05;;;;;;;18.08;11.32;;;;;;;-0.75;100.00;101836.84;6113015;29;20089;-88
2022/03/07 07:45:13;;;;;;;18.98;11.52;;;;;;;-0.62;100.00;101840.09;6101901;29;20157;-88
2022/03/07 07:48:15;;;;;;;17.95;11.23;;;;;;;-0.58;100.00;101837.50;6102560;29;20059;-88
2022/03/07 07:51:16;;;;;;;20.58;11.13;;;;;;;-0.60;100.00;101834.13;6102099;29;20044;-88
2022/03/07 07:54:19;;;;;;;19.40;11.75;;;;;;;-0.51;100.00;101843.38;6104845;29;20058;-88
2022/03/07 07:57:21;;;;;;;22.42;13.18;;;;;;;-0.56;100.00;101847.69;6103045;29;20437;-88
2022/03/07 08:00:23;;;;;;;20.52;12.05;;;;;;;-0.54;100.00;101853.59;6101750;29;20452;-88
2022/03/07 08:03:25;;;;;;;22.08;12.48;;;;;;;-0.50;100.00;101851.00;6102847;29;20187;-88
2022/03/07 08:06:27;;;;;;;22.08;12.35;;;;;;;-0.55;100.00;101844.25;6112648;29;20063;-88
2022/03/07 08:09:30;;;;;;;23.80;13.45;;;;;;;-0.58;100.00;101847.69;6098892;29;20095;-88
2022/03/07 08:12:32;;;;;;;24.70;12.65;;;;;;;-0.55;100.00;101846.81;6098603;29;20580;-88
2022/03/07 08:15:35;;;;;;;24.50;14.30;;;;;;;-0.56;100.00;101850.22;6105932;29;20171;-88
2022/03/07 08:18:38;;;;;;;23.17;13.63;;;;;;;-0.54;100.00;101839.16;6104214;29;20051;-88
2022/03/07 08:21:40;;;;;;;22.27;13.52;;;;;;;-0.52;100.00;101841.66;6106718;29;20042;-88
2022/03/07 08:24:42;;;;;;;27.00;13.88;;;;;;;-0.36;100.00;101845.72;6106298;29;20509;-88
2022/03/07 08:27:44;;;;;;;26.27;14.00;;;;;;;-0.36;100.00;101843.19;6108375;29;20124;-88
2022/03/07 08:30:46;;;;;;;22.65;14.02;;;;;;;-0.23;100.00;101854.03;6106476;29;20048;-87
2022/03/07 08:33:48;;;;;;;23.95;13.32;;;;;;;-0.10;100.00;101854.72;6110939;29;20036;-87
2022/03/07 08:36:50;;;;;;;24.50;12.90;;;;;;;0.09;100.00;101852.78;6113486;29;20039;-87
2022/03/07 08:39:52;;;;;;;23.20;14.50;;;;;;;0.11;100.00;101854.44;6110050;29;20070;-87
2022/03/07 08:42:54;;;;;;;24.35;13.73;;;;;;;0.11;100.00;101857.00;6118049;29;20039;-87
2022/03/07 08:45:56;;;;;;;27.15;13.65;;;;;;;0.16;100.00;101852.66;6119800;29;20040;-87
2022/03/07 08:48:58;;;;;;;24.40;13.50;;;;;;;0.19;100.00;101859.41;6121221;29;20051;-88
2022/03/07 08:52:00;;;;;;;24.80;14.90;;;;;;;0.23;100.00;101853.44;6119231;29;20280;-88
2022/03/07 08:55:04;;;;;;;26.70;15.07;;;;;;;0.17;100.00;101854.38;6120337;29;20099;-88
2022/03/07 08:58:06;;;;;;;24.33;14.85;;;;;;;0.19;100.00;101864.50;6104003;29;20481;-88
2022/03/07 09:01:09;;;;;;;25.55;14.60;;;;;;;0.26;100.00;101858.47;6100332;29;20047;-88
2022/03/07 09:04:11;;;;;;;22.98;13.98;;;;;;;0.40;100.00;101871.84;6115280;29;20062;-88
2022/03/07 09:07:13;;;;;;;24.02;13.98;;;;;;;0.38;100.00;101867.66;6104570;29;20040;-88
2022/03/07 09:10:15;;;;;;;24.10;13.40;;;;;;;0.49;100.00;101859.84;6115416;29;20048;-87
2022/03/07 09:13:17;;;;;;;21.73;13.70;;;;;;;0.44;100.00;101862.44;6102681;29;20104;-88
2022/03/07 09:16:19;;;;;;;28.40;14.45;;;;;;;0.45;100.00;101860.72;6110390;29;20040;-88
2022/03/07 09:19:22;;;;;;;23.92;13.07;;;;;;;0.60;100.00;101853.72;6094215;29;20060;-88
2022/03/07 09:22:25;;;;;;;22.92;12.88;;;;;;;0.69;100.00;101862.06;6112960;29;20083;-88
2022/03/07 09:25:27;;;;;;;22.65;13.57;;;;;;;0.67;100.00;101864.63;6106946;29;20044;-88
2022/03/07 09:28:29;;;;;;;24.65;14.05;;;;;;;0.79;100.00;101858.50;6116246;29;20051;-88
2022/03/07 09:31:31;;;;;;;24.08;13.73;;;;;;;1.01;100.00;101858.97;6113472;29;20048;-87
2022/03/07 09:34:34;;;;;;;23.95;13.95;;;;;;;1.00;100.00;101854.75;6103391;29;20645;-87
2022/03/07 09:37:36;;;;;;;25.33;14.15;;;;;;;1.03;100.00;101863.16;6114857;29;20048;-88
2022/03/07 09:40:38;;;;;;;22.33;13.68;;;;;;;0.97;100.00;101863.28;6117082;29;20131;-88
2022/03/07 09:43:54;;;;;;;26.65;14.07;;;;;;;0.98;100.00;101857.31;6103558;29;20036;-88
2022/03/07 09:46:57;;;;;;;26.13;15.20;;;;;;;1.01;100.00;101864.91;6103926;29;20052;-88
2022/03/07 09:49:59;;;;;;;28.10;14.70;;;;;;;1.11;100.00;101859.66;6099255;29;20085;-88
2022/03/07 09:53:01;;;;;;;30.83;15.48;;;;;;;1.14;100.00;101862.13;6112624;29;20576;-88
2022/03/07 09:56:04;;;;;;;30.13;14.88;;;;;;;1.23;100.00;101856.88;6118745;29;20036;-88
2022/03/07 09:59:07;;;;;;;31.08;15.55;;;;;;;1.12;100.00;101867.28;6110666;29;20059;-88
2022/03/07 10:02:12;;;;;;;33.50;16.13;;;;;;;1.21;100.00;101877.28;6110579;29;20130;-88
2022/03/07 10:05:14;;;;;;;30.52;15.48;;;;;;;1.17;100.00;101878.25;6114135;29;20047;-88
2022/03/07 10:08:28;;;;;;;29.27;15.75;;;;;;;1.29;100.00;101874.59;6115580;29;20052;-88
2022/03/07 10:11:33;;;;;;;32.90;15.60;;;;;;;1.32;100.00;101872.00;6114885;29;20044;-88
2022/03/07 10:14:53;;;;;;;32.40;16.05;;;;;;;1.29;100.00;101864.41;6104500;29;20105;-88
2022/03/07 10:17:56;;;;;;;28.13;14.57;;;;;;;1.37;100.00;101851.53;6106583;29;20040;-88
2022/03/07 10:21:00;;;;;;;27.25;14.77;;;;;;;1.42;100.00;101854.81;6107486;29;20425;-88
2022/03/07 10:24:02;;;;;;;28.73;14.70;;;;;;;1.56;100.00;101863.03;6106370;29;20055;-88
2022/03/07 10:27:05;;;;;;;27.42;15.23;;;;;;;1.59;100.00;101859.56;6110172;29;20046;-88
2022/03/07 10:30:12;;;;;;;27.23;14.95;;;;;;;1.60;100.00;101868.94;6105197;29;20047;-88
2022/03/07 10:33:14;;;;;;;25.02;13.75;;;;;;;1.65;100.00;101867.13;6106555;29;20835;-88
2022/03/07 10:36:16;;;;;;;26.50;13.68;;;;;;;1.71;100.00;101857.63;6107138;29;20590;-88
2022/03/07 10:39:24;;;;;;;29.98;13.60;;;;;;;1.84;100.00;101862.47;6106338;29;20135;-88
2022/03/07 10:42:27;;;;;;;24.48;13.55;;;;;;;1.94;100.00;101864.81;6101600;29;20408;-88
2022/03/07 10:45:30;;;;;;;24.85;14.27;;;;;;;2.06;100.00;101862.84;6123643;29;20036;-88
2022/03/07 10:48:43;;;;;;;26.30;13.77;;;;;;;2.02;100.00;101856.97;6104054;29;20054;-88
2022/03/07 10:51:52;;;;;;;25.77;13.43;;;;;;;2.12;100.00;101848.22;6108005;29;20405;-88
2022/03/07 10:54:54;;;;;;;24.75;13.10;;;;;;;2.25;100.00;101843.69;6107530;29;20790;-88
2022/03/07 10:58:15;;;;;;;24.15;12.82;;;;;;;2.42;100.00;101860.34;6105089;29;20055;-88
2022/03/07 11:01:46;;;;;;;20.95;12.27;;;;;;;2.53;100.00;101861.75;6109832;29;20087;-88
2022/03/07 11:05:02;;;;;;;22.42;12.10;;;;;;;2.63;100.00;101871.75;6101903;29;20059;-88
2022/03/07 11:08:04;;;;;;;20.83;12.70;;;;;;;2.74;100.00;101877.47;6117877;29;20460;-88
2022/03/07 11:11:06;;;;;;;20.45;12.10;;;;;;;2.73;100.00;101879.19;6105768;29;20046;-88
2022/03/07 11:14:08;;;;;;;25.10;13.23;;;;;;;2.65;100.00;101860.63;6109891;29;20092;-88
2022/03/07 11:17:17;;;;;;;26.20;13.15;;;;;;;2.72;100.00;101854.50;6113025;29;20036;-88
2022/03/07 11:20:27;;;;;;;24.98;13.02;;;;;;;2.87;100.00;101849.88;6105112;29;20131;-88
2022/03/07 11:23:30;;;;;;;22.80;12.73;;;;;;;2.83;100.00;101843.97;6121316;29;20048;-89
2022/03/07 11:26:32;;;;;;;21.10;11.60;;;;;;;2.90;100.00;101852.34;6110671;29;20036;-89
2022/03/07 11:29:47;;;;;;;21.75;11.52;;;;;;;2.99;100.00;101847.00;6117473;29;20058;-89
2022/03/07 11:32:51;;;;;;;17.52;10.85;;;;;;;2.89;100.00;101848.97;6107741;29;20050;-89
2022/03/07 11:35:54;;;;;;;22.17;12.48;;;;;;;3.00;100.00;101844.38;6097799;29;20052;-89
2022/03/07 11:39:09;;;;;;;20.30;10.70;;;;;;;2.99;100.00;101831.66;6114558;29;20056;-89
2022/03/07 11:42:12;;;;;;;17.10;10.35;;;;;;;3.14;100.00;101827.84;6114482;29;20059;-89
2022/03/07 11:45:18;;;;;;;16.52;10.10;;;;;;;3.17;100.00;101817.53;6091657;29;20040;-89
2022/03/07 11:48:22;;;;;;;19.48;10.52;;;;;;;3.19;100.00;101813.22;6107476;29;20176;-89
2022/03/07 11:51:27;;;;;;;16.75;9.55;;;;;;;3.13;100.00;101808.25;6107411;29;20043;-89
2022/03/07 11:54:29;;;;;;;19.42;10.02;;;;;;;3.16;100.00;101810.75;6106604;29;20051;-89
2022/03/07 11:57:42;;;;;;;18.00;9.77;;;;;;;3.19;100.00;101798.69;6104913;29;20044;-90
2022/03/07 12:00:46;;;;;;;17.02;9.18;;;;;;;3.44;100.00;101800.56;6109277;29;20048;-90
2022/03/07 12:03:49;;;;;;;13.82;8.90;;;;;;;3.54;100.00;101796.84;6104360;29;20096;-90
2022/03/07 12:06:57;;;;;;;15.55;9.00;;;;;;;3.56;100.00;101795.09;6110383;29;20055;-89
2022/03/07 12:10:07;;;;;;;16.98;9.27;;;;;;;3.59;100.00;101792.44;6111939;29;20036;-90
2022/03/07 12:13:10;;;;;;;19.45;10.02;;;;;;;3.76;100.00;101786.00;6105543;29;20039;-90
2022/03/07 12:16:32;;;;;;;14.25;8.95;;;;;;;3.91;100.00;101794.94;6106310;29;20047;-90
2022/03/07 12:19:35;;;;;;;13.95;8.43;;;;;;;3.93;100.00;101783.75;6103785;29;20168;-90
2022/03/07 12:22:38;;;;;;;15.00;8.40;;;;;;;4.05;100.00;101791.06;6106768;29;20092;-90
2022/03/07 12:25:40;;;;;;;12.75;8.15;;;;;;;4.19;100.00;101787.22;6108757;29;20123;-90
2022/03/07 12:28:45;;;;;;;14.57;7.43;;;;;;;4.23;100.00;101793.94;6106454;29;20186;-90
2022/03/07 12:32:05;;;;;;;10.20;6.63;;;;;;;4.30;100.00;101787.72;6109467;29;20676;-91
2022/03/07 12:35:17;;;;;;;13.57;7.28;;;;;;;4.13;100.00;101783.13;6112817;29;20522;-90
2022/03/07 12:38:24;;;;;;;13.10;8.55;;;;;;;4.11;100.00;101779.78;6107974;29;20044;-90
2022/03/07 12:41:36;;;;;;;11.88;7.88;;;;;;;4.36;100.00;101774.69;6107854;29;20074;-90
2022/03/07 12:44:39;;;;;;;15.48;7.85;;;;;;;4.50;100.00;101772.50;6109579;29;20040;-90
2022/03/07 12:47:41;;;;;;;15.57;7.90;;;;;;;4.54;100.00;101768.94;6113777;29;20490;-90
2022/03/07 12:50:43;;;;;;;11.25;7.47;;;;;;;4.71;100.00;101777.78;6120983;29;20175;-90
2022/03/07 12:53:46;;;;;;;11.00;7.47;;;;;;;4.69;100.00;101775.28;6112669;29;20043;-90
2022/03/07 12:56:48;;;;;;;12.88;8.00;;;;;;;4.80;100.00;101774.09;6116544;29;20816;-90
2022/03/07 13:00:20;;;;;;;10.13;6.78;;;;;;;4.95;100.00;101763.28;6109863;29;20055;-90
2022/03/07 13:03:22;;;;;;;11.77;6.65;;;;;;;4.95;100.00;101768.41;6104242;29;20135;-90
2022/03/07 13:06:26;;;;;;;9.65;6.35;;;;;;;4.89;100.00;101769.44;6105994;29;20564;-90
2022/03/07 13:09:31;;;;;;;12.68;6.07;;;;;;;5.05;100.00;101761.22;6109456;29;20051;-91
2022/03/07 13:12:34;;;;;;;11.23;7.00;;;;;;;5.18;100.00;101758.16;6089132;29;20044;-90
2022/03/07 13:15:46;;;;;;;12.07;7.00;;;;;;;5.19;99.85;101748.72;6114384;29;20031;-90
2022/03/07 13:19:14;;;;;;;10.18;6.88;;;;;;;5.12;100.00;101753.25;6109942;29;20047;-90
2022/03/07 13:22:18;;;;;;;8.57;6.38;;;;;;;5.07;98.69;101742.31;6094586;29;20094;-90
2022/03/07 13:25:20;;;;;;;10.98;6.57;;;;;;;5.09;99.13;101744.81;6111714;29;20073;-90
2022/03/07 13:28:29;;;;;;;9.38;6.40;;;;;;;5.15;99.70;101735.16;6106492;29;20510;-90
2022/03/07 13:31:45;;;;;;;10.15;6.32;;;;;;;5.30;95.21;101738.06;6102506;29;20211;-90
2022/03/07 13:34:57;;;;;;;12.60;6.43;;;;;;;5.45;95.67;101740.06;6108432;29;20460;-90
2022/03/07 13:38:00;;;;;;;11.45;5.97;;;;;;;5.57;91.17;101737.03;6108882;29;20489;-90
2022/03/07 13:41:14;;;;;;;10.00;6.25;;;;;;;5.47;95.74;101730.56;6107880;29;20048;-91
2022/03/07 13:44:16;;;;;;;8.80;5.60;;;;;;;5.56;92.44;101724.22;6110081;29;20043;-91
2022/03/07 13:47:30;;;;;;;8.88;5.20;;;;;;;5.89;89.43;101721.22;6104754;29;20402;-91
2022/03/07 13:50:32;;;;;;;10.90;6.00;;;;;;;5.99;89.00;101722.59;6111966;29;20400;-91
2022/03/07 13:53:34;;;;;;;11.65;5.90;;;;;;;6.07;87.77;101724.84;6105201;29;20100;-91
2022/03/07 13:56:36;;;;;;;9.52;6.32;;;;;;;6.04;87.78;101715.53;6103502;29;20401;-91
2022/03/07 13:59:38;;;;;;;8.50;5.78;;;;;;;6.10;86.67;101710.13;6106381;29;20056;-91